Bagdad, Florida
Current Conditions -  °F | °C
As of 9:07 AM on Saturday 20 Dec 2014 (Local Time) from KNDZ Reporting Station
Light Rain Light Rain  
Wind Chill: 51°   Ceiling: 600
Heat Index: 51°   Visibility: 4mi
Dew Point: 48°   Wind: 9mph
Humidity: 89%   Direction: 40°NE
Pressure: 30.16"   Gusts: NA
Location:  30.6°N, 87.04°W
Report Text: KNDZ 201507Z AUTO 04008KT 4SM -RA BR BKN006 OVC019 11/09 A3016 RMK AO2 CIG 005V009 P0001 T01060089 $
Loading
Personal Weather Stations






























Interactive Weather Map New forecast layout! Learn more

10-Day Weather Forecast

Advertisements
Track Severe Weather on mobile